Flight Track Log - Related Links

Times and Time Zones

All times are in EDT time to prevent confusion due to time zone crossing. See the EJA831 flight status page for this flight to view local times or setup timezone preferences in your user account.

Time Position Orientation Groundspeed Altitude Reporting Facility
EDT Latitude Longitude Course Direction KTS MPH feet Rate Location/Type
Sat 03:58:18 PM 40.9500 -72.2833 217° Southwest 176 203 1,300  Level New York TRACON
Sat 03:59:18 PM 40.9000 -72.3333 217° Southwest 196 226 4,400 2,492 Climbing New York TRACON
Sat 04:00:16 PM 40.8625 -72.3825 225° Southwest 248 285 6,200 2,441 Climbing Boston Center
Sat 04:01:16 PM 40.8061 -72.4511 223° Southwest 248 285 9,200 1,682 Climbing Boston Center
Sat 04:02:28 PM 40.7497 -72.5194 223° Southwest 266 306 9,900 542 Climbing Boston Center
Sat 04:03:40 PM 40.6831 -72.6017 223° Southwest 272 313 10,500 1,555 Climbing Boston Center
Sat 04:06:08 PM 40.5342 -72.7864 223° Southwest 299 344 15,600 1,587 Climbing New York Center
Sat 04:07:08 PM 40.4681 -72.8689 224° Southwest 328 377 16,000 200 Climbing New York Center
Sat 04:08:08 PM 40.3936 -72.9567 222° Southwest 330 380 16,000  Level New York Center
Sat 04:09:06 PM 40.3339 -73.0283 222° Southwest 325 374 16,000  Level New York Center
Sat 04:10:07 PM 40.2592 -73.1183 223° Southwest 331 381 16,000  Level New York Center
Sat 04:11:08 PM 40.1972 -73.1922 222° Southwest 331 381 16,000  Level New York Center
Sat 04:12:09 PM 40.1225 -73.2819 223° Southwest 331 381 16,000  Level New York Center
Sat 04:13:07 PM 40.0539 -73.3633 222° Southwest 331 381 16,000 -50 Level New York Center
Sat 04:14:08 PM 39.9853 -73.4503 224° Southwest 331 381 15,900 -50 Descending New York Center
Sat 04:15:06 PM 39.9192 -73.5181 218° Southwest 331 381 15,900  Level New York Center
Sat 04:16:07 PM 39.8608 -73.6050 229° Southwest 331 381 15,900  Level New York Center
Sat 04:17:08 PM 39.8022 -73.6972 230° Southwest 331 381 15,900 50 Level New York Center
Sat 04:18:06 PM 39.7478 -73.7894 233° Southwest 336 387 16,000  Climbing New York Center
Sat 04:18:36 PM 39.7111 -73.8436 229° Southwest 328 377 15,900 -67 Descending Washington Center
Sat 04:19:36 PM 39.6542 -73.9339 231° Southwest 323 372 15,900  Level Washington Center

Login

Don't have an account? Register now (free) for customized features, flight alerts, and more!